createdAt,value
2023-10-10T00:00:27.508Z,26.83
2023-10-10T00:05:56.722Z,24.38
2023-10-10T00:11:10.230Z,24.75
2023-10-10T00:16:21.425Z,25.40
2023-10-10T00:21:30.089Z,22.33
2023-10-10T00:26:35.958Z,21.73
2023-10-10T00:31:58.064Z,23.60
2023-10-10T00:37:09.461Z,23.15
2023-10-10T00:42:21.605Z,21.48
2023-10-10T00:47:32.897Z,26.07
2023-10-10T00:52:42.832Z,25.55
2023-10-10T00:57:54.102Z,21.35
2023-10-10T01:03:08.242Z,26.53
2023-10-10T01:08:18.577Z,25.73
2023-10-10T01:13:24.333Z,26.73
2023-10-10T01:18:30.043Z,26.83
2023-10-10T01:23:39.105Z,23.55
2023-10-10T01:28:45.089Z,25.40
2023-10-10T01:33:51.482Z,20.47
2023-10-10T01:39:24.857Z,25.25
2023-10-10T01:44:30.402Z,25.85
2023-10-10T01:49:37.166Z,25.73
2023-10-10T01:54:47.558Z,25.90
2023-10-10T01:59:59.292Z,26.80
2023-10-10T02:05:06.036Z,23.87
2023-10-10T02:10:20.282Z,30.27
2023-10-10T02:15:28.421Z,25.63
2023-10-10T02:20:51.531Z,24.27
2023-10-10T02:26:04.164Z,27.00
2023-10-10T02:31:11.604Z,26.37
2023-10-10T02:36:17.164Z,28.27
2023-10-10T02:41:40.050Z,23.80
2023-10-10T02:46:49.242Z,27.30
2023-10-10T02:51:57.104Z,24.90
2023-10-10T02:57:21.840Z,24.77
2023-10-10T03:02:30.858Z,26.63
2023-10-10T03:07:37.274Z,24.20
2023-10-10T03:12:50.581Z,26.63
2023-10-10T03:18:16.274Z,28.93
2023-10-10T03:23:34.796Z,21.53
2023-10-10T03:28:48.675Z,24.70
2023-10-10T03:34:12.405Z,21.97
2023-10-10T03:39:27.930Z,26.90
2023-10-10T03:44:48.465Z,23.67
2023-10-10T03:50:06.456Z,20.70
2023-10-10T03:55:24.807Z,25.65
2023-10-10T04:00:45.323Z,24.38
2023-10-10T04:06:03.303Z,26.63
2023-10-10T04:11:21.393Z,23.63
2023-10-10T04:16:41.940Z,25.17
2023-10-10T04:21:59.968Z,23.10
2023-10-10T04:27:18.241Z,25.00
2023-10-10T04:32:38.875Z,24.33
2023-10-10T04:37:56.835Z,23.03
2023-10-10T04:43:14.685Z,22.48
2023-10-10T04:48:35.153Z,25.93
2023-10-10T04:53:53.111Z,21.95
2023-10-10T04:59:11.079Z,21.30
2023-10-10T05:04:37.104Z,24.53
2023-10-10T05:09:54.963Z,19.55
2023-10-10T05:15:12.823Z,21.90
2023-10-10T05:20:33.611Z,23.47
2023-10-10T05:25:39.194Z,21.45
2023-10-10T05:30:45.592Z,21.90
2023-10-10T05:36:01.312Z,17.50
2023-10-10T05:41:07.724Z,18.50
2023-10-10T05:46:13.325Z,21.30
2023-10-10T05:51:21.479Z,18.00
2023-10-10T05:56:27.024Z,18.38
2023-10-10T06:01:32.606Z,20.77
2023-10-10T06:06:42.939Z,18.93
2023-10-10T06:11:48.734Z,23.73
2023-10-10T06:16:55.434Z,20.23
2023-10-10T06:22:09.951Z,22.37
2023-10-10T06:27:15.520Z,20.67
2023-10-10T06:32:22.299Z,23.07
2023-10-10T06:37:31.121Z,25.17
2023-10-10T06:42:37.198Z,18.60
2023-10-10T06:47:46.320Z,26.83
2023-10-10T06:52:56.398Z,20.50
2023-10-10T06:58:03.264Z,21.58
2023-10-10T07:03:09.035Z,21.77
2023-10-10T07:08:21.042Z,20.77
2023-10-10T07:13:31.035Z,22.80
2023-10-10T07:18:36.848Z,23.77
2023-10-10T07:24:04.109Z,22.63
2023-10-10T07:29:24.232Z,19.73
2023-10-10T07:34:36.697Z,17.10
2023-10-10T07:39:58.817Z,18.40
2023-10-10T07:45:14.671Z,19.90
2023-10-10T07:50:28.029Z,21.47
2023-10-10T07:55:53.954Z,17.55
2023-10-10T08:01:11.977Z,17.33
2023-10-10T08:06:23.919Z,18.03
2023-10-10T08:11:37.695Z,18.80
2023-10-10T08:16:45.597Z,17.03
2023-10-10T08:21:53.166Z,16.50
2023-10-10T08:27:11.448Z,15.15
2023-10-10T08:32:17.052Z,14.80
2023-10-10T08:37:22.823Z,15.53
2023-10-10T08:42:36.517Z,15.23
2023-10-10T08:47:44.561Z,15.03
2023-10-10T08:52:50.126Z,17.53
2023-10-10T08:57:59.156Z,15.65
2023-10-10T09:03:05.207Z,14.20
2023-10-10T09:08:16.238Z,15.33
2023-10-10T09:13:27.270Z,14.15
2023-10-10T09:18:33.286Z,13.70
2023-10-10T09:23:44.120Z,17.50
2023-10-10T09:28:57.372Z,11.98
2023-10-10T09:34:05.055Z,16.75
2023-10-10T09:39:27.891Z,12.10
2023-10-10T09:44:55.225Z,14.63
2023-10-10T09:50:24.574Z,11.07
2023-10-10T09:55:46.222Z,14.80
2023-10-10T10:00:55.109Z,13.57
2023-10-10T10:06:31.453Z,10.43
2023-10-10T10:11:45.048Z,11.83
2023-10-10T10:17:13.769Z,14.00
2023-10-10T10:22:21.574Z,11.13
2023-10-10T10:27:33.191Z,9.47
2023-10-10T10:32:43.836Z,13.73
2023-10-10T10:38:00.198Z,12.68
2023-10-10T10:43:06.503Z,11.90
2023-10-10T10:48:31.182Z,9.82
2023-10-10T10:53:40.616Z,9.70
2023-10-10T10:59:12.204Z,9.60
2023-10-10T11:04:44.858Z,9.70
2023-10-10T11:10:08.206Z,9.57
2023-10-10T11:15:16.368Z,11.23
2023-10-10T11:20:52.385Z,10.50
2023-10-10T11:26:04.882Z,12.60
2023-10-10T11:31:10.584Z,7.97
2023-10-10T11:36:39.605Z,13.93
2023-10-10T11:41:46.780Z,9.50
2023-10-10T11:47:04.263Z,9.35
2023-10-10T11:52:23.076Z,11.80
2023-10-10T11:57:31.299Z,9.25
2023-10-10T12:02:41.374Z,9.65
2023-10-10T12:07:49.635Z,9.63
2023-10-10T12:12:56.933Z,12.80
2023-10-10T12:18:02.522Z,13.52
2023-10-10T12:23:10.834Z,8.85
2023-10-10T12:28:19.442Z,8.67
2023-10-10T12:33:25.087Z,11.73
2023-10-10T12:38:34.656Z,7.30
2023-10-10T12:43:40.998Z,8.50
2023-10-10T12:48:47.873Z,7.95
2023-10-10T12:54:02.317Z,10.45
2023-10-10T12:59:25.796Z,9.37
2023-10-10T13:04:33.727Z,8.80
2023-10-10T13:09:44.452Z,10.43
2023-10-10T13:15:06.409Z,12.82
2023-10-10T13:20:13.187Z,5.40
2023-10-10T13:25:23.444Z,8.32
2023-10-10T13:30:28.998Z,9.73
2023-10-10T13:35:38.003Z,11.27
2023-10-10T13:40:50.546Z,9.73
2023-10-10T13:45:58.921Z,13.65
2023-10-10T13:51:06.050Z,7.47
2023-10-10T13:56:15.077Z,10.03
2023-10-10T14:01:31.049Z,10.27
2023-10-10T14:06:47.242Z,10.50
2023-10-10T14:12:02.542Z,8.00
2023-10-10T14:17:09.591Z,10.23
2023-10-10T14:22:20.861Z,16.38
2023-10-10T14:27:30.485Z,13.53
2023-10-10T14:32:39.518Z,14.55
2023-10-10T14:38:00.425Z,9.18
2023-10-10T14:43:11.989Z,10.03
2023-10-10T14:48:20.730Z,9.03
2023-10-10T14:53:26.443Z,9.02
2023-10-10T14:58:36.451Z,10.02
2023-10-10T15:03:42.938Z,10.20
2023-10-10T15:08:48.530Z,8.95
2023-10-10T15:13:56.835Z,8.35
2023-10-10T15:19:03.957Z,6.37
2023-10-10T15:24:12.974Z,9.05
2023-10-10T15:29:23.014Z,13.98
2023-10-10T15:34:29.265Z,8.60
2023-10-10T15:39:39.623Z,13.30
2023-10-10T15:44:48.801Z,9.18
2023-10-10T15:49:54.257Z,7.68
2023-10-10T15:54:59.769Z,8.20
2023-10-10T16:00:15.124Z,10.57
2023-10-10T16:05:21.023Z,8.23
2023-10-10T16:10:26.650Z,7.53
2023-10-10T16:15:34.878Z,10.10
2023-10-10T16:20:41.741Z,10.05
2023-10-10T16:25:51.153Z,11.10
2023-10-10T16:30:59.258Z,8.37
2023-10-10T16:36:04.971Z,9.40
2023-10-10T16:41:10.961Z,8.63
2023-10-10T16:46:20.031Z,15.23
2023-10-10T16:51:27.877Z,9.73
2023-10-10T16:56:35.780Z,10.00
2023-10-10T17:01:43.906Z,12.03
2023-10-10T17:06:50.091Z,10.23
2023-10-10T17:12:03.795Z,11.80
2023-10-10T17:17:14.425Z,11.50
2023-10-10T17:22:21.462Z,9.30
2023-10-10T17:27:27.152Z,7.70
2023-10-10T17:32:35.798Z,9.60
2023-10-10T17:37:41.579Z,12.30
2023-10-10T17:42:50.265Z,11.02
2023-10-10T17:47:58.437Z,10.38
2023-10-10T17:53:04.411Z,13.77
2023-10-10T17:58:09.901Z,11.43
2023-10-10T18:03:18.630Z,12.45
2023-10-10T18:08:24.460Z,10.03
2023-10-10T18:13:29.970Z,13.33
2023-10-10T18:18:38.175Z,20.10
2023-10-10T18:23:45.368Z,11.73
2023-10-10T18:28:53.708Z,11.40
2023-10-10T18:34:03.455Z,6.97
2023-10-10T18:39:14.409Z,8.02
2023-10-10T18:44:20.885Z,7.57
2023-10-10T18:49:29.310Z,10.23
2023-10-10T18:54:34.933Z,11.13
2023-10-10T18:59:42.053Z,13.37
2023-10-10T19:04:50.519Z,14.13
2023-10-10T19:09:57.889Z,12.15
2023-10-10T19:15:03.689Z,14.10
2023-10-10T19:20:18.089Z,15.53
2023-10-10T19:25:27.885Z,14.93
2023-10-10T19:30:34.789Z,11.82
2023-10-10T19:35:47.155Z,13.30
2023-10-10T19:40:52.824Z,11.77
2023-10-10T19:45:58.371Z,12.45
2023-10-10T19:51:09.898Z,12.40
2023-10-10T19:56:17.158Z,16.38
2023-10-10T20:01:25.635Z,14.77
2023-10-10T20:06:34.094Z,12.67
2023-10-10T20:11:40.855Z,11.05
2023-10-10T20:16:51.392Z,14.90
2023-10-10T20:21:59.688Z,10.00
2023-10-10T20:27:06.888Z,9.70
2023-10-10T20:32:12.536Z,9.70
2023-10-10T20:37:21.672Z,11.23
2023-10-10T20:42:27.193Z,10.07
2023-10-10T20:47:32.799Z,9.52
2023-10-10T20:52:40.980Z,8.40
2023-10-10T20:57:46.835Z,11.20
2023-10-10T21:02:55.738Z,12.00
2023-10-10T21:08:04.089Z,10.67
2023-10-10T21:13:09.830Z,9.83
2023-10-10T21:18:15.533Z,7.85
2023-10-10T21:23:27.595Z,9.40
2023-10-10T21:28:33.564Z,9.90
2023-10-10T21:33:39.197Z,9.00
2023-10-10T21:38:48.072Z,11.20
2023-10-10T21:43:53.733Z,11.03
2023-10-10T21:48:59.557Z,12.10
2023-10-10T21:54:09.089Z,8.17
2023-10-10T21:59:14.771Z,10.47
2023-10-10T22:04:20.801Z,10.25
2023-10-10T22:09:33.940Z,7.68
2023-10-10T22:14:39.849Z,11.80
2023-10-10T22:19:47.573Z,12.15
2023-10-10T22:24:57.293Z,11.52
2023-10-10T22:30:03.858Z,10.03
2023-10-10T22:35:11.639Z,8.90
2023-10-10T22:40:26.363Z,9.60
2023-10-10T22:45:34.781Z,8.73
2023-10-10T22:50:42.429Z,11.25
2023-10-10T22:55:50.573Z,10.80
2023-10-10T23:00:58.258Z,8.27
2023-10-10T23:06:04.079Z,8.93
2023-10-10T23:11:14.850Z,9.43
2023-10-10T23:16:20.945Z,12.23
2023-10-10T23:21:26.573Z,9.68
2023-10-10T23:26:34.802Z,9.77
2023-10-10T23:31:41.044Z,9.30
2023-10-10T23:36:46.625Z,9.38
2023-10-10T23:41:55.007Z,6.47
2023-10-10T23:47:05.369Z,9.77
2023-10-10T23:52:12.536Z,6.97
2023-10-10T23:57:22.092Z,11.43
